Map

Track Data

SID SEASON NUMBER BASIN SUBBASIN NAME ISO_TIME NATURE LAT LON WMO_WIND WMO_PRES WMO_AGENCY TRACK_TYPE DIST2LAND LANDFALL IFLAG USA_AGENCY USA_ATCF_ID USA_LAT USA_LON USA_RECORD USA_STATUS USA_WIND USA_PRES USA_SSHS USA_R34_NE USA_R34_SE USA_R34_SW USA_R34_NW USA_R50_NE USA_R50_SE USA_R50_SW USA_R50_NW USA_R64_NE USA_R64_SE USA_R64_SW USA_R64_NW USA_POCI USA_ROCI USA_RMW USA_EYE TOKYO_LAT TOKYO_LON TOKYO_GRADE TOKYO_WIND TOKYO_PRES TOKYO_R50_DIR TOKYO_R50_LONG TOKYO_R50_SHORT TOKYO_R30_DIR TOKYO_R30_LONG TOKYO_R30_SHORT TOKYO_LAND CMA_LAT CMA_LON CMA_CAT CMA_WIND CMA_PRES HKO_LAT HKO_LON HKO_CAT HKO_WIND HKO_PRES NEWDELHI_LAT NEWDELHI_LON NEWDELHI_GRADE NEWDELHI_WIND NEWDELHI_PRES NEWDELHI_CI NEWDELHI_DP NEWDELHI_POCI REUNION_LAT REUNION_LON REUNION_TYPE REUNION_WIND REUNION_PRES REUNION_TNUM REUNION_CI REUNION_RMW REUNION_R34_NE REUNION_R34_SE REUNION_R34_SW REUNION_R34_NW REUNION_R50_NE REUNION_R50_SE REUNION_R50_SW REUNION_R50_NW REUNION_R64_NE REUNION_R64_SE REUNION_R64_SW REUNION_R64_NW BOM_LAT BOM_LON BOM_TYPE BOM_WIND BOM_PRES BOM_TNUM BOM_CI BOM_RMW BOM_R34_NE BOM_R34_SE BOM_R34_SW BOM_R34_NW BOM_R50_NE BOM_R50_SE BOM_R50_SW BOM_R50_NW BOM_R64_NE BOM_R64_SE BOM_R64_SW BOM_R64_NW BOM_ROCI BOM_POCI BOM_EYE BOM_POS_METHOD BOM_PRES_METHOD NADI_LAT NADI_LON NADI_CAT NADI_WIND NADI_PRES WELLINGTON_LAT WELLINGTON_LON WELLINGTON_WIND WELLINGTON_PRES DS824_LAT DS824_LON DS824_STAGE DS824_WIND DS824_PRES TD9636_LAT TD9636_LON TD9636_STAGE TD9636_WIND TD9636_PRES TD9635_LAT TD9635_LON TD9635_WIND TD9635_PRES TD9635_ROCI NEUMANN_LAT NEUMANN_LON NEUMANN_CLASS NEUMANN_WIND NEUMANN_PRES MLC_LAT MLC_LON MLC_CLASS MLC_WIND MLC_PRES USA_GUST BOM_GUST BOM_GUST_PER REUNION_GUST REUNION_GUST_PER USA_SEAHGT USA_SEARAD_NE USA_SEARAD_SE USA_SEARAD_SW USA_SEARAD_NW STORM_SPEED STORM_DIR
1971247N13343 1971 107 NA NA NOT_NAMED 1971-09-03 12:00:00 TS 13.5000 -17.5000 20 hurdat_atl main 79 79 O_____________ hurdat_atl AL121971 13.5000 -17.5000 TD 20 -1 9 270
1971247N13343 1971 107 NA NA NOT_NAMED 1971-09-03 15:00:00 TS 13.5001 -17.9875 main 131 131 P_____________ AL121971 13.5001 -17.9875 TD 20 -1 10 270
1971247N13343 1971 107 NA NA NOT_NAMED 1971-09-03 18:00:00 TS 13.5000 -18.5000 20 hurdat_atl main 171 171 O_____________ hurdat_atl AL121971 13.5000 -18.5000 TD 20 -1 10 270
1971247N13343 1971 107 NA NA NOT_NAMED 1971-09-03 21:00:00 TS 13.5001 -19.0375 main 210 210 P_____________ AL121971 13.5001 -19.0375 TD 22 -1 10 270
1971247N13343 1971 107 NA NA NOT_NAMED 1971-09-04 00:00:00 TS 13.5000 -19.5000 25 hurdat_atl main 254 254 O_____________ hurdat_atl AL121971 13.5000 -19.5000 TD 25 -1 7 270
1971247N13343 1971 107 NA NA NOT_NAMED 1971-09-04 03:00:00 TS 13.4997 -19.7500 main 272 272 P_____________ AL121971 13.4997 -19.7500 TD 25 -1 5 270
1971247N13343 1971 107 NA NA NOT_NAMED 1971-09-04 06:00:00 TS 13.5000 -20.0000 25 hurdat_atl main 301 301 O_____________ hurdat_atl AL121971 13.5000 -20.0000 TD 25 -1 7 269
1971247N13343 1971 107 NA NA NOT_NAMED 1971-09-04 09:00:00 TS 13.4927 -20.4925 main 350 350 P_____________ AL121971 13.4927 -20.4925 TD 27 -1 10 270
1971247N13343 1971 107 NA NA NOT_NAMED 1971-09-04 12:00:00 TS 13.5000 -21.0000 30 hurdat_atl main 400 400 O_____________ hurdat_atl AL121971 13.5000 -21.0000 TD 30 -1 8 274
1971247N13343 1971 107 NA NA NOT_NAMED 1971-09-04 15:00:00 TS 13.5423 -21.3225 main 431 431 P_____________ AL121971 13.5423 -21.3225 TD 30 -1 6 280
1971247N13343 1971 107 NA NA NOT_NAMED 1971-09-04 18:00:00 TS 13.6000 -21.6000 30 hurdat_atl main 459 459 O_____________ hurdat_atl AL121971 13.6000 -21.6000 TD 30 -1 5 282
1971247N13343 1971 107 NA NA NOT_NAMED 1971-09-04 21:00:00 TS 13.6494 -21.8601 main 490 487 P_____________ AL121971 13.6494 -21.8601 TD 30 -1 7 278
1971247N13343 1971 107 NA NA NOT_NAMED 1971-09-05 00:00:00 TS 13.7000 -22.3000 30 hurdat_atl main 529 529 O_____________ hurdat_atl AL121971 13.7000 -22.3000 TD 30 -1 13 274
1971247N13343 1971 107 NA NA NOT_NAMED 1971-09-05 03:00:00 TS 13.7432 -23.1476 main 614 614 P_____________ AL121971 13.7432 -23.1476 TD 30 -1 18 273
1971247N13343 1971 107 NA NA NOT_NAMED 1971-09-05 06:00:00 TS 13.8000 -24.1000 30 hurdat_atl main 718 718 O_____________ hurdat_atl AL121971 13.8000 -24.1000 TD 30 -1 16 275
1971247N13343 1971 107 NA NA NOT_NAMED 1971-09-05 09:00:00 TS 13.8770 -24.8301 main 792 792 P_____________ AL121971 13.8770 -24.8301 TD 30 -1 14 278
1971247N13343 1971 107 NA NA NOT_NAMED 1971-09-05 12:00:00 TS 14.0000 -25.5000 30 hurdat_atl main 865 865 O_____________ hurdat_atl AL121971 14.0000 -25.5000 TD 30 -1 14 283
1971247N13343 1971 107 NA NA NOT_NAMED 1971-09-05 15:00:00 TS 14.1848 -26.2000 main 938 938 P_____________ AL121971 14.1848 -26.2000 TD 30 -1 14 286
1971247N13343 1971 107 NA NA NOT_NAMED 1971-09-05 18:00:00 TS 14.4000 -26.9000 30 hurdat_atl main 1012 1012 O_____________ hurdat_atl AL121971 14.4000 -26.9000 TD 30 -1 14 287
1971247N13343 1971 107 NA NA NOT_NAMED 1971-09-05 21:00:00 TS 14.6074 -27.6075 main 1087 1087 P_____________ AL121971 14.6074 -27.6075 TD 30 -1 14 286
1971247N13343 1971 107 NA NA NOT_NAMED 1971-09-06 00:00:00 TS 14.8000 -28.3000 30 hurdat_atl main 1161 1161 O_____________ hurdat_atl AL121971 14.8000 -28.3000 TD 30 -1 13 285
1971247N13343 1971 107 NA NA NOT_NAMED 1971-09-06 03:00:00 TS 14.9497 -28.9503 main 1236 1236 P_____________ AL121971 14.9497 -28.9503 TD 30 -1 13 283
1971247N13343 1971 107 NA NA NOT_NAMED 1971-09-06 06:00:00 TS 15.1000 -29.6000 30 hurdat_atl main 1301 1301 O_____________ hurdat_atl AL121971 15.1000 -29.6000 TD 30 -1 14 285
1971247N13343 1971 107 NA NA NOT_NAMED 1971-09-06 09:00:00 TS 15.3000 -30.3074 main 1376 1376 P_____________ AL121971 15.3000 -30.3074 TD 27 -1 14 287
1971247N13343 1971 107 NA NA NOT_NAMED 1971-09-06 12:00:00 TS 15.5000 -31.0000 25 hurdat_atl main 1452 1452 O_____________ hurdat_atl AL121971 15.5000 -31.0000 TD 25 -1 13 286
1971247N13343 1971 107 NA NA NOT_NAMED 1971-09-06 15:00:00 TS 15.6496 -31.6078 main 1517 1517 P_____________ AL121971 15.6496 -31.6078 TD 25 -1 12 285
1971247N13343 1971 107 NA NA NOT_NAMED 1971-09-06 18:00:00 TS 15.8000 -32.2000 25 hurdat_atl main 1582 1582 O_____________ hurdat_atl AL121971 15.8000 -32.2000 TD 25 -1 13 285
1971247N13343 1971 107 NA NA NOT_NAMED 1971-09-06 21:00:00 TS 15.9929 -32.9397 main 1657 1657 P_____________ AL121971 15.9929 -32.9397 TD 25 -1 13 288
1971247N13343 1971 107 NA NA NOT_NAMED 1971-09-07 00:00:00 TS 16.2000 -33.5000 25 hurdat_atl main 1723 1714 O_____________ hurdat_atl AL121971 16.2000 -33.5000 TD 25 -1 6 312
1971247N13343 1971 107 NA NA NOT_NAMED 1971-09-07 03:00:00 TS 16.3986 -33.4109 main 1714 1714 P_____________ AL121971 16.3986 -33.4109 TD 25 -1 4 0
1971247N13343 1971 107 NA NA NOT_NAMED 1971-09-07 06:00:00 TS 16.6000 -33.5000 25 hurdat_atl main 1726 1726 O_____________ hurdat_atl AL121971 16.6000 -33.5000 TD 25 -1 13 290
1971247N13343 1971 107 NA NA NOT_NAMED 1971-09-07 09:00:00 TS 16.8330 -34.6590 main 1855 1855 P_____________ AL121971 16.8330 -34.6590 TD 25 -1 24 279
1971247N13343 1971 107 NA NA NOT_NAMED 1971-09-07 12:00:00 TS 17.0000 -36.0000 25 hurdat_atl main 1995 1995 O_____________ hurdat_atl AL121971 17.0000 -36.0000 TD 25 -1 20 276
1971247N13343 1971 107 NA NA NOT_NAMED 1971-09-07 15:00:00 TS 17.0286 -36.6904 main 2069 2069 P_____________ AL121971 17.0286 -36.6904 TD 25 -1 11 270
1971247N13343 1971 107 NA NA NOT_NAMED 1971-09-07 18:00:00 TS 17.0000 -37.2000 25 hurdat_atl main 2095 2047 O_____________ hurdat_atl AL121971 17.0000 -37.2000 TD 25 -1 11 269
1971247N13343 1971 107 NA NA NOT_NAMED 1971-09-07 21:00:00 TS 16.9999 -37.8500 main 2047 1993 P_____________ AL121971 16.9999 -37.8500 TD 22 -1 12 270
1971247N13343 1971 107 NA NA NOT_NAMED 1971-09-08 00:00:00 TS 17.0000 -38.5000 20 hurdat_atl main 1993 1948 O_____________ hurdat_atl AL121971 17.0000 -38.5000 TD 20 -1 12 270
1971247N13343 1971 107 NA NA NOT_NAMED 1971-09-08 03:00:00 TS 16.9997 -39.1000 main 1948 1903 P_____________ AL121971 16.9997 -39.1000 TD 20 -1 11 270
1971247N13343 1971 107 NA NA NOT_NAMED 1971-09-08 06:00:00 TS 17.0000 -39.7000 20 hurdat_atl main 1903 1861 O_____________ hurdat_atl AL121971 17.0000 -39.7000 TD 20 -1 12 270
1971247N13343 1971 107 NA NA NOT_NAMED 1971-09-08 09:00:00 TS 16.9997 -40.3275 main 1861 1812 P_____________ AL121971 16.9997 -40.3275 TD 20 -1 12 270
1971247N13343 1971 107 NA NA NOT_NAMED 1971-09-08 12:00:00 TS 17.0000 -41.0000 20 hurdat_atl main 1812 1766 O_____________ hurdat_atl AL121971 17.0000 -41.0000 TD 20 -1 13 270
1971247N13343 1971 107 NA NA NOT_NAMED 1971-09-08 15:00:00 TS 17.0007 -41.7325 main 1766 1716 P_____________ AL121971 17.0007 -41.7325 TD 20 -1 14 270
1971247N13343 1971 107 NA NA NOT_NAMED 1971-09-08 18:00:00 TS 17.0000 -42.5000 20 hurdat_atl main 1716 O_____________ hurdat_atl AL121971 17.0000 -42.5000 TD 20 -1 15 270

About IBTrACS Database

This database is a web-friendly format of International Best Track Archive for Climate Stewardship (IBTrACS), a global best track data archive curated by NOAA dating back to 1842.

Updated: 2021-12-06